sensor_id;sensor_type;location;lat;lon;timestamp;temperature;humidity
5061;DHT22;2549;52.128;21.068;2023-12-04T00:01:17;2.80;99.90
5061;DHT22;2549;52.128;21.068;2023-12-04T00:03:44;2.80;99.90
5061;DHT22;2549;52.128;21.068;2023-12-04T00:06:12;2.80;99.90
5061;DHT22;2549;52.128;21.068;2023-12-04T00:08:39;2.80;99.90
5061;DHT22;2549;52.128;21.068;2023-12-04T00:11:07;2.80;99.90
5061;DHT22;2549;52.128;21.068;2023-12-04T00:13:34;2.90;99.90
5061;DHT22;2549;52.128;21.068;2023-12-04T00:16:02;2.80;99.90
5061;DHT22;2549;52.128;21.068;2023-12-04T00:18:29;2.90;99.90
5061;DHT22;2549;52.128;21.068;2023-12-04T00:20:56;2.90;99.90
5061;DHT22;2549;52.128;21.068;2023-12-04T00:23:23;2.80;99.90
5061;DHT22;2549;52.128;21.068;2023-12-04T00:25:51;2.80;99.90
5061;DHT22;2549;52.128;21.068;2023-12-04T00:28:17;2.80;99.90
5061;DHT22;2549;52.128;21.068;2023-12-04T00:30:44;2.90;99.90
5061;DHT22;2549;52.128;21.068;2023-12-04T00:33:11;2.80;99.90
5061;DHT22;2549;52.128;21.068;2023-12-04T00:35:38;2.80;99.90
5061;DHT22;2549;52.128;21.068;2023-12-04T00:38:05;2.80;99.90
5061;DHT22;2549;52.128;21.068;2023-12-04T00:40:32;2.80;99.90
5061;DHT22;2549;52.128;21.068;2023-12-04T00:43:00;2.80;99.90
5061;DHT22;2549;52.128;21.068;2023-12-04T00:45:27;2.90;99.90
5061;DHT22;2549;52.128;21.068;2023-12-04T00:47:54;2.80;99.90
5061;DHT22;2549;52.128;21.068;2023-12-04T00:50:20;2.90;99.90
5061;DHT22;2549;52.128;21.068;2023-12-04T00:52:47;2.90;99.90
5061;DHT22;2549;52.128;21.068;2023-12-04T00:55:14;2.90;99.90
5061;DHT22;2549;52.128;21.068;2023-12-04T00:57:41;2.90;99.90
5061;DHT22;2549;52.128;21.068;2023-12-04T01:00:08;2.90;99.90
5061;DHT22;2549;52.128;21.068;2023-12-04T01:02:35;2.90;99.90
5061;DHT22;2549;52.128;21.068;2023-12-04T01:05:02;2.90;99.90
5061;DHT22;2549;52.128;21.068;2023-12-04T01:07:29;2.90;99.90
5061;DHT22;2549;52.128;21.068;2023-12-04T01:09:56;2.90;99.90
5061;DHT22;2549;52.128;21.068;2023-12-04T01:12:23;2.90;99.90
5061;DHT22;2549;52.128;21.068;2023-12-04T01:14:50;2.90;99.90
5061;DHT22;2549;52.128;21.068;2023-12-04T01:17:17;2.90;99.90
5061;DHT22;2549;52.128;21.068;2023-12-04T01:19:44;2.90;99.90
5061;DHT22;2549;52.128;21.068;2023-12-04T01:22:11;2.90;99.90
5061;DHT22;2549;52.128;21.068;2023-12-04T01:24:38;2.90;99.90
5061;DHT22;2549;52.128;21.068;2023-12-04T01:27:05;3.00;99.90
5061;DHT22;2549;52.128;21.068;2023-12-04T01:29:32;2.90;99.90
5061;DHT22;2549;52.128;21.068;2023-12-04T01:31:59;2.90;99.90
5061;DHT22;2549;52.128;21.068;2023-12-04T01:34:25;2.90;99.90
5061;DHT22;2549;52.128;21.068;2023-12-04T01:36:52;2.90;99.90
5061;DHT22;2549;52.128;21.068;2023-12-04T01:39:19;2.90;99.90
5061;DHT22;2549;52.128;21.068;2023-12-04T01:41:46;2.90;99.90
5061;DHT22;2549;52.128;21.068;2023-12-04T01:44:13;2.90;99.90
5061;DHT22;2549;52.128;21.068;2023-12-04T01:46:41;2.90;99.90
5061;DHT22;2549;52.128;21.068;2023-12-04T01:49:08;2.90;99.90
5061;DHT22;2549;52.128;21.068;2023-12-04T01:51:35;3.00;99.90
5061;DHT22;2549;52.128;21.068;2023-12-04T01:54:03;3.00;99.90
5061;DHT22;2549;52.128;21.068;2023-12-04T01:56:33;3.00;99.90
5061;DHT22;2549;52.128;21.068;2023-12-04T01:59:00;3.00;99.90
5061;DHT22;2549;52.128;21.068;2023-12-04T02:01:27;3.00;99.90
5061;DHT22;2549;52.128;21.068;2023-12-04T02:03:56;2.90;99.90
5061;DHT22;2549;52.128;21.068;2023-12-04T02:06:23;2.90;99.90
5061;DHT22;2549;52.128;21.068;2023-12-04T02:08:51;2.90;99.90
5061;DHT22;2549;52.128;21.068;2023-12-04T02:11:18;2.90;99.90
5061;DHT22;2549;52.128;21.068;2023-12-04T02:13:45;2.90;99.90
5061;DHT22;2549;52.128;21.068;2023-12-04T02:16:13;2.90;99.90
5061;DHT22;2549;52.128;21.068;2023-12-04T02:18:42;2.90;99.90
5061;DHT22;2549;52.128;21.068;2023-12-04T02:21:09;2.90;99.90
5061;DHT22;2549;52.128;21.068;2023-12-04T02:23:36;2.80;99.90
5061;DHT22;2549;52.128;21.068;2023-12-04T02:26:09;2.80;99.90
5061;DHT22;2549;52.128;21.068;2023-12-04T02:28:38;2.80;99.90
5061;DHT22;2549;52.128;21.068;2023-12-04T02:31:07;2.80;99.90
5061;DHT22;2549;52.128;21.068;2023-12-04T02:33:34;2.70;99.90
5061;DHT22;2549;52.128;21.068;2023-12-04T02:36:04;2.70;99.90
5061;DHT22;2549;52.128;21.068;2023-12-04T02:38:32;2.60;99.90
5061;DHT22;2549;52.128;21.068;2023-12-04T02:40:59;2.70;99.90
5061;DHT22;2549;52.128;21.068;2023-12-04T02:43:26;2.70;99.90
5061;DHT22;2549;52.128;21.068;2023-12-04T02:45:53;2.70;99.90
5061;DHT22;2549;52.128;21.068;2023-12-04T02:48:20;2.70;99.90
5061;DHT22;2549;52.128;21.068;2023-12-04T02:50:47;2.70;99.80
5061;DHT22;2549;52.128;21.068;2023-12-04T02:53:14;2.70;99.80
5061;DHT22;2549;52.128;21.068;2023-12-04T02:55:40;2.70;99.80
5061;DHT22;2549;52.128;21.068;2023-12-04T02:58:07;2.70;99.80
5061;DHT22;2549;52.128;21.068;2023-12-04T03:00:34;2.70;99.70
5061;DHT22;2549;52.128;21.068;2023-12-04T03:03:01;2.70;99.60
5061;DHT22;2549;52.128;21.068;2023-12-04T03:05:28;2.70;99.70
5061;DHT22;2549;52.128;21.068;2023-12-04T03:07:56;2.70;99.60
5061;DHT22;2549;52.128;21.068;2023-12-04T03:10:23;2.70;99.70
5061;DHT22;2549;52.128;21.068;2023-12-04T03:12:50;2.70;99.70
5061;DHT22;2549;52.128;21.068;2023-12-04T03:15:17;2.70;99.80
5061;DHT22;2549;52.128;21.068;2023-12-04T03:17:47;2.70;99.80
5061;DHT22;2549;52.128;21.068;2023-12-04T03:20:14;2.70;99.70
5061;DHT22;2549;52.128;21.068;2023-12-04T03:22:41;2.70;99.70
5061;DHT22;2549;52.128;21.068;2023-12-04T03:25:08;2.70;99.60
5061;DHT22;2549;52.128;21.068;2023-12-04T03:27:35;2.70;99.70
5061;DHT22;2549;52.128;21.068;2023-12-04T03:30:02;2.70;99.90
5061;DHT22;2549;52.128;21.068;2023-12-04T03:32:29;2.70;99.90
5061;DHT22;2549;52.128;21.068;2023-12-04T03:34:59;2.70;99.50
5061;DHT22;2549;52.128;21.068;2023-12-04T03:37:27;2.70;99.60
5061;DHT22;2549;52.128;21.068;2023-12-04T03:39:54;2.70;99.60
5061;DHT22;2549;52.128;21.068;2023-12-04T03:42:20;2.70;99.50
5061;DHT22;2549;52.128;21.068;2023-12-04T03:44:47;2.70;99.60
5061;DHT22;2549;52.128;21.068;2023-12-04T03:47:14;2.70;99.60
5061;DHT22;2549;52.128;21.068;2023-12-04T03:49:41;2.70;99.70
5061;DHT22;2549;52.128;21.068;2023-12-04T03:52:08;2.70;99.70
5061;DHT22;2549;52.128;21.068;2023-12-04T03:54:35;2.70;99.60
5061;DHT22;2549;52.128;21.068;2023-12-04T03:57:02;2.70;99.50
5061;DHT22;2549;52.128;21.068;2023-12-04T03:59:29;2.60;99.40
5061;DHT22;2549;52.128;21.068;2023-12-04T04:01:56;2.70;99.80
5061;DHT22;2549;52.128;21.068;2023-12-04T04:04:22;2.60;99.40
5061;DHT22;2549;52.128;21.068;2023-12-04T04:06:49;2.60;99.50
5061;DHT22;2549;52.128;21.068;2023-12-04T04:09:16;2.60;99.50
5061;DHT22;2549;52.128;21.068;2023-12-04T04:11:43;2.60;99.50
5061;DHT22;2549;52.128;21.068;2023-12-04T04:14:10;2.60;99.40
5061;DHT22;2549;52.128;21.068;2023-12-04T04:16:37;2.60;99.40
5061;DHT22;2549;52.128;21.068;2023-12-04T04:19:04;2.60;99.30
5061;DHT22;2549;52.128;21.068;2023-12-04T04:21:32;2.50;99.20
5061;DHT22;2549;52.128;21.068;2023-12-04T04:23:59;2.60;99.40
5061;DHT22;2549;52.128;21.068;2023-12-04T04:26:26;2.50;99.30
5061;DHT22;2549;52.128;21.068;2023-12-04T04:28:53;2.60;99.30
5061;DHT22;2549;52.128;21.068;2023-12-04T04:31:20;2.60;99.30
5061;DHT22;2549;52.128;21.068;2023-12-04T04:33:46;2.50;99.20
5061;DHT22;2549;52.128;21.068;2023-12-04T04:36:13;2.60;99.20
5061;DHT22;2549;52.128;21.068;2023-12-04T04:38:40;2.50;99.10
5061;DHT22;2549;52.128;21.068;2023-12-04T04:41:13;2.60;99.20
5061;DHT22;2549;52.128;21.068;2023-12-04T04:43:41;2.60;99.10
5061;DHT22;2549;52.128;21.068;2023-12-04T04:46:08;2.50;99.10
5061;DHT22;2549;52.128;21.068;2023-12-04T04:48:35;2.50;99.10
5061;DHT22;2549;52.128;21.068;2023-12-04T04:51:03;2.60;99.20
5061;DHT22;2549;52.128;21.068;2023-12-04T04:53:30;2.60;99.10
5061;DHT22;2549;52.128;21.068;2023-12-04T04:55:57;2.50;99.10
5061;DHT22;2549;52.128;21.068;2023-12-04T04:58:24;2.50;99.10
5061;DHT22;2549;52.128;21.068;2023-12-04T05:00:51;2.50;99.20
5061;DHT22;2549;52.128;21.068;2023-12-04T05:03:18;2.50;99.20
5061;DHT22;2549;52.128;21.068;2023-12-04T05:05:46;2.50;99.20
5061;DHT22;2549;52.128;21.068;2023-12-04T05:08:13;2.50;99.30
5061;DHT22;2549;52.128;21.068;2023-12-04T05:10:40;2.50;99.30
5061;DHT22;2549;52.128;21.068;2023-12-04T05:13:07;2.50;99.30
5061;DHT22;2549;52.128;21.068;2023-12-04T05:15:34;2.50;99.20
5061;DHT22;2549;52.128;21.068;2023-12-04T05:18:01;2.50;99.30
5061;DHT22;2549;52.128;21.068;2023-12-04T05:20:28;2.50;99.20
5061;DHT22;2549;52.128;21.068;2023-12-04T05:22:56;2.50;99.50
5061;DHT22;2549;52.128;21.068;2023-12-04T05:25:23;2.50;99.20
5061;DHT22;2549;52.128;21.068;2023-12-04T05:27:57;2.50;99.30
5061;DHT22;2549;52.128;21.068;2023-12-04T05:30:24;2.40;99.40
5061;DHT22;2549;52.128;21.068;2023-12-04T05:32:51;2.50;99.50
5061;DHT22;2549;52.128;21.068;2023-12-04T05:35:18;2.50;99.80
5061;DHT22;2549;52.128;21.068;2023-12-04T05:37:45;2.50;99.30
5061;DHT22;2549;52.128;21.068;2023-12-04T05:40:12;2.50;99.30
5061;DHT22;2549;52.128;21.068;2023-12-04T05:42:39;2.50;99.40
5061;DHT22;2549;52.128;21.068;2023-12-04T05:45:06;2.60;99.30
5061;DHT22;2549;52.128;21.068;2023-12-04T05:47:34;2.50;99.30
5061;DHT22;2549;52.128;21.068;2023-12-04T05:50:01;2.50;99.30
5061;DHT22;2549;52.128;21.068;2023-12-04T05:52:28;2.50;99.20
5061;DHT22;2549;52.128;21.068;2023-12-04T05:54:55;2.50;99.30
5061;DHT22;2549;52.128;21.068;2023-12-04T05:57:22;2.50;99.20
5061;DHT22;2549;52.128;21.068;2023-12-04T05:59:49;2.50;99.30
5061;DHT22;2549;52.128;21.068;2023-12-04T06:02:16;2.50;99.30
5061;DHT22;2549;52.128;21.068;2023-12-04T06:04:43;2.50;99.60
5061;DHT22;2549;52.128;21.068;2023-12-04T06:07:10;2.50;99.30
5061;DHT22;2549;52.128;21.068;2023-12-04T06:09:37;2.50;99.30
5061;DHT22;2549;52.128;21.068;2023-12-04T06:12:04;2.50;99.40
5061;DHT22;2549;52.128;21.068;2023-12-04T06:14:35;2.50;99.30
5061;DHT22;2549;52.128;21.068;2023-12-04T06:17:02;2.50;99.30
5061;DHT22;2549;52.128;21.068;2023-12-04T06:19:29;2.50;99.30
5061;DHT22;2549;52.128;21.068;2023-12-04T06:21:56;2.50;99.30
5061;DHT22;2549;52.128;21.068;2023-12-04T06:24:23;2.50;99.30
5061;DHT22;2549;52.128;21.068;2023-12-04T06:26:50;2.60;99.20
5061;DHT22;2549;52.128;21.068;2023-12-04T06:29:18;2.60;99.20
5061;DHT22;2549;52.128;21.068;2023-12-04T06:31:46;2.60;99.20
5061;DHT22;2549;52.128;21.068;2023-12-04T06:34:13;2.60;99.20
5061;DHT22;2549;52.128;21.068;2023-12-04T06:36:40;2.60;99.20
5061;DHT22;2549;52.128;21.068;2023-12-04T06:39:12;2.60;99.20
5061;DHT22;2549;52.128;21.068;2023-12-04T06:41:43;2.60;99.10
5061;DHT22;2549;52.128;21.068;2023-12-04T06:44:10;2.60;99.00
5061;DHT22;2549;52.128;21.068;2023-12-04T06:46:38;2.60;99.10
5061;DHT22;2549;52.128;21.068;2023-12-04T06:49:06;2.50;99.00
5061;DHT22;2549;52.128;21.068;2023-12-04T06:51:33;2.50;99.10
5061;DHT22;2549;52.128;21.068;2023-12-04T06:54:00;2.50;99.10
5061;DHT22;2549;52.128;21.068;2023-12-04T06:56:27;2.60;99.10
5061;DHT22;2549;52.128;21.068;2023-12-04T06:58:54;2.50;99.00
5061;DHT22;2549;52.128;21.068;2023-12-04T07:01:21;2.60;99.10
5061;DHT22;2549;52.128;21.068;2023-12-04T07:03:48;2.60;99.10
5061;DHT22;2549;52.128;21.068;2023-12-04T07:06:15;2.50;99.00
5061;DHT22;2549;52.128;21.068;2023-12-04T07:08:42;2.60;99.10
5061;DHT22;2549;52.128;21.068;2023-12-04T07:11:09;2.60;99.10
5061;DHT22;2549;52.128;21.068;2023-12-04T07:13:36;2.60;99.10
5061;DHT22;2549;52.128;21.068;2023-12-04T07:16:04;2.70;99.10
5061;DHT22;2549;52.128;21.068;2023-12-04T07:18:31;2.70;99.10
5061;DHT22;2549;52.128;21.068;2023-12-04T07:20:58;2.70;99.10
5061;DHT22;2549;52.128;21.068;2023-12-04T07:23:25;2.70;99.00
5061;DHT22;2549;52.128;21.068;2023-12-04T07:25:53;2.70;99.00
5061;DHT22;2549;52.128;21.068;2023-12-04T07:28:20;2.70;99.00
5061;DHT22;2549;52.128;21.068;2023-12-04T07:30:47;2.80;99.10
5061;DHT22;2549;52.128;21.068;2023-12-04T07:33:14;2.70;99.00
5061;DHT22;2549;52.128;21.068;2023-12-04T07:35:41;2.70;99.00
5061;DHT22;2549;52.128;21.068;2023-12-04T07:38:08;2.80;99.30
5061;DHT22;2549;52.128;21.068;2023-12-04T07:40:34;2.80;98.90
5061;DHT22;2549;52.128;21.068;2023-12-04T07:43:01;2.80;99.00
5061;DHT22;2549;52.128;21.068;2023-12-04T07:45:29;2.80;99.00
5061;DHT22;2549;52.128;21.068;2023-12-04T07:47:56;2.80;99.00
5061;DHT22;2549;52.128;21.068;2023-12-04T07:50:23;2.80;99.00
5061;DHT22;2549;52.128;21.068;2023-12-04T07:52:51;2.80;98.80
5061;DHT22;2549;52.128;21.068;2023-12-04T07:55:18;2.80;98.80
5061;DHT22;2549;52.128;21.068;2023-12-04T07:57:45;2.80;98.80
5061;DHT22;2549;52.128;21.068;2023-12-04T08:00:14;2.80;98.90
5061;DHT22;2549;52.128;21.068;2023-12-04T08:02:41;2.80;98.80
5061;DHT22;2549;52.128;21.068;2023-12-04T08:05:12;2.80;98.80
5061;DHT22;2549;52.128;21.068;2023-12-04T08:07:40;2.80;98.90
5061;DHT22;2549;52.128;21.068;2023-12-04T08:10:07;2.80;98.90
5061;DHT22;2549;52.128;21.068;2023-12-04T08:12:34;2.90;98.90
5061;DHT22;2549;52.128;21.068;2023-12-04T08:15:03;2.90;98.90
5061;DHT22;2549;52.128;21.068;2023-12-04T08:17:30;2.90;98.90
5061;DHT22;2549;52.128;21.068;2023-12-04T08:19:57;2.90;98.80
5061;DHT22;2549;52.128;21.068;2023-12-04T08:22:25;3.00;98.80
5061;DHT22;2549;52.128;21.068;2023-12-04T08:24:52;2.90;98.80
5061;DHT22;2549;52.128;21.068;2023-12-04T08:27:19;3.00;98.70
5061;DHT22;2549;52.128;21.068;2023-12-04T08:29:46;2.90;98.60
5061;DHT22;2549;52.128;21.068;2023-12-04T08:32:13;2.90;98.60
5061;DHT22;2549;52.128;21.068;2023-12-04T08:34:40;2.90;98.60
5061;DHT22;2549;52.128;21.068;2023-12-04T08:37:07;2.90;98.60
5061;DHT22;2549;52.128;21.068;2023-12-04T08:39:34;2.90;98.60
5061;DHT22;2549;52.128;21.068;2023-12-04T08:42:01;2.90;98.60
5061;DHT22;2549;52.128;21.068;2023-12-04T08:44:34;3.00;98.60
5061;DHT22;2549;52.128;21.068;2023-12-04T08:47:02;3.00;98.30
5061;DHT22;2549;52.128;21.068;2023-12-04T08:49:29;2.90;98.20
5061;DHT22;2549;52.128;21.068;2023-12-04T08:52:08;2.90;98.10
5061;DHT22;2549;52.128;21.068;2023-12-04T08:54:39;2.90;98.00
5061;DHT22;2549;52.128;21.068;2023-12-04T08:57:08;2.90;98.00
5061;DHT22;2549;52.128;21.068;2023-12-04T08:59:35;3.00;98.20
5061;DHT22;2549;52.128;21.068;2023-12-04T09:02:03;3.00;98.10
5061;DHT22;2549;52.128;21.068;2023-12-04T09:04:31;3.10;98.10
5061;DHT22;2549;52.128;21.068;2023-12-04T09:06:59;3.10;98.00
5061;DHT22;2549;52.128;21.068;2023-12-04T09:09:29;3.10;97.90
5061;DHT22;2549;52.128;21.068;2023-12-04T09:11:56;3.10;98.10
5061;DHT22;2549;52.128;21.068;2023-12-04T09:14:23;3.10;98.20
5061;DHT22;2549;52.128;21.068;2023-12-04T09:16:50;3.20;98.30
5061;DHT22;2549;52.128;21.068;2023-12-04T09:19:17;3.20;98.20
5061;DHT22;2549;52.128;21.068;2023-12-04T09:21:44;3.20;98.10
5061;DHT22;2549;52.128;21.068;2023-12-04T09:24:13;3.30;98.00
5061;DHT22;2549;52.128;21.068;2023-12-04T09:26:40;3.20;98.00
5061;DHT22;2549;52.128;21.068;2023-12-04T09:29:07;3.20;98.00
5061;DHT22;2549;52.128;21.068;2023-12-04T09:31:35;3.30;98.10
5061;DHT22;2549;52.128;21.068;2023-12-04T09:34:02;3.30;98.10
5061;DHT22;2549;52.128;21.068;2023-12-04T09:36:29;3.30;98.00
5061;DHT22;2549;52.128;21.068;2023-12-04T09:38:56;3.40;97.90
5061;DHT22;2549;52.128;21.068;2023-12-04T09:41:23;3.40;97.80
5061;DHT22;2549;52.128;21.068;2023-12-04T09:43:51;3.40;97.90
5061;DHT22;2549;52.128;21.068;2023-12-04T09:46:18;3.40;97.70
5061;DHT22;2549;52.128;21.068;2023-12-04T09:48:46;3.40;97.80
5061;DHT22;2549;52.128;21.068;2023-12-04T09:51:14;3.40;97.70
5061;DHT22;2549;52.128;21.068;2023-12-04T09:53:42;3.30;97.50
5061;DHT22;2549;52.128;21.068;2023-12-04T09:56:10;3.30;97.30
5061;DHT22;2549;52.128;21.068;2023-12-04T09:58:39;3.30;97.40
5061;DHT22;2549;52.128;21.068;2023-12-04T10:01:07;3.30;97.50
5061;DHT22;2549;52.128;21.068;2023-12-04T10:03:35;3.30;97.70
5061;DHT22;2549;52.128;21.068;2023-12-04T10:06:04;3.30;97.40
5061;DHT22;2549;52.128;21.068;2023-12-04T10:08:31;3.30;97.60
5061;DHT22;2549;52.128;21.068;2023-12-04T10:10:58;3.40;97.50
5061;DHT22;2549;52.128;21.068;2023-12-04T10:13:27;3.40;97.60
5061;DHT22;2549;52.128;21.068;2023-12-04T10:16:13;3.40;97.70
5061;DHT22;2549;52.128;21.068;2023-12-04T10:18:40;3.50;97.70
5061;DHT22;2549;52.128;21.068;2023-12-04T10:21:07;3.50;97.70
5061;DHT22;2549;52.128;21.068;2023-12-04T10:23:44;3.50;97.70
5061;DHT22;2549;52.128;21.068;2023-12-04T10:26:14;3.50;97.70
5061;DHT22;2549;52.128;21.068;2023-12-04T10:29:04;3.50;97.70
5061;DHT22;2549;52.128;21.068;2023-12-04T10:31:32;3.60;97.70
5061;DHT22;2549;52.128;21.068;2023-12-04T10:34:02;3.60;97.80
5061;DHT22;2549;52.128;21.068;2023-12-04T10:36:29;3.60;97.80
5061;DHT22;2549;52.128;21.068;2023-12-04T10:39:00;3.60;97.80
5061;DHT22;2549;52.128;21.068;2023-12-04T10:41:27;3.60;97.60
5061;DHT22;2549;52.128;21.068;2023-12-04T10:43:56;3.70;97.80
5061;DHT22;2549;52.128;21.068;2023-12-04T10:46:36;3.70;97.80
5061;DHT22;2549;52.128;21.068;2023-12-04T10:49:04;3.80;97.80
5061;DHT22;2549;52.128;21.068;2023-12-04T10:51:33;3.80;97.70
5061;DHT22;2549;52.128;21.068;2023-12-04T10:54:01;3.90;97.70
5061;DHT22;2549;52.128;21.068;2023-12-04T10:56:39;3.90;97.60
5061;DHT22;2549;52.128;21.068;2023-12-04T10:59:11;3.90;97.60
5061;DHT22;2549;52.128;21.068;2023-12-04T11:01:40;3.90;97.50
5061;DHT22;2549;52.128;21.068;2023-12-04T11:04:13;3.90;97.30
5061;DHT22;2549;52.128;21.068;2023-12-04T11:06:49;3.90;97.40
5061;DHT22;2549;52.128;21.068;2023-12-04T11:09:20;3.90;97.30
5061;DHT22;2549;52.128;21.068;2023-12-04T11:11:51;3.80;97.30
5061;DHT22;2549;52.128;21.068;2023-12-04T11:14:22;3.90;97.20
5061;DHT22;2549;52.128;21.068;2023-12-04T11:17:01;3.90;97.20
5061;DHT22;2549;52.128;21.068;2023-12-04T11:19:39;3.90;96.90
5061;DHT22;2549;52.128;21.068;2023-12-04T11:22:09;3.90;97.00
5061;DHT22;2549;52.128;21.068;2023-12-04T11:24:36;3.90;97.00
5061;DHT22;2549;52.128;21.068;2023-12-04T11:27:04;3.90;97.00
5061;DHT22;2549;52.128;21.068;2023-12-04T11:29:32;3.90;96.90
5061;DHT22;2549;52.128;21.068;2023-12-04T11:31:59;3.90;96.90
5061;DHT22;2549;52.128;21.068;2023-12-04T11:34:26;3.90;97.00
5061;DHT22;2549;52.128;21.068;2023-12-04T11:36:53;3.90;97.00
5061;DHT22;2549;52.128;21.068;2023-12-04T11:39:22;4.00;97.00
5061;DHT22;2549;52.128;21.068;2023-12-04T11:41:52;4.00;96.80
5061;DHT22;2549;52.128;21.068;2023-12-04T11:44:19;4.00;96.80
5061;DHT22;2549;52.128;21.068;2023-12-04T11:46:56;4.00;96.80
5061;DHT22;2549;52.128;21.068;2023-12-04T11:49:31;4.00;96.80
5061;DHT22;2549;52.128;21.068;2023-12-04T11:52:03;4.00;96.90
5061;DHT22;2549;52.128;21.068;2023-12-04T11:55:01;4.10;97.10
5061;DHT22;2549;52.128;21.068;2023-12-04T11:57:39;4.10;96.90
5061;DHT22;2549;52.128;21.068;2023-12-04T12:00:22;4.10;96.70
5061;DHT22;2549;52.128;21.068;2023-12-04T12:05:39;4.10;96.50
5061;DHT22;2549;52.128;21.068;2023-12-04T12:08:08;4.10;96.50
5061;DHT22;2549;52.128;21.068;2023-12-04T12:10:35;4.10;96.40
5061;DHT22;2549;52.128;21.068;2023-12-04T12:13:02;4.10;96.20
5061;DHT22;2549;52.128;21.068;2023-12-04T12:15:32;4.10;96.20
5061;DHT22;2549;52.128;21.068;2023-12-04T12:18:00;4.10;96.30
5061;DHT22;2549;52.128;21.068;2023-12-04T12:20:27;4.10;96.30
5061;DHT22;2549;52.128;21.068;2023-12-04T12:22:54;4.10;96.30
5061;DHT22;2549;52.128;21.068;2023-12-04T12:25:21;4.10;96.40
5061;DHT22;2549;52.128;21.068;2023-12-04T12:27:50;4.10;96.50
5061;DHT22;2549;52.128;21.068;2023-12-04T12:30:17;4.20;96.50
5061;DHT22;2549;52.128;21.068;2023-12-04T12:32:44;4.10;96.50
5061;DHT22;2549;52.128;21.068;2023-12-04T12:35:11;4.20;96.50
5061;DHT22;2549;52.128;21.068;2023-12-04T12:37:39;4.20;96.50
5061;DHT22;2549;52.128;21.068;2023-12-04T12:40:06;4.20;96.40
5061;DHT22;2549;52.128;21.068;2023-12-04T12:42:37;4.20;96.40
5061;DHT22;2549;52.128;21.068;2023-12-04T12:45:09;4.20;96.40
5061;DHT22;2549;52.128;21.068;2023-12-04T12:47:42;4.20;96.40
5061;DHT22;2549;52.128;21.068;2023-12-04T12:50:09;4.20;96.40
5061;DHT22;2549;52.128;21.068;2023-12-04T12:52:42;4.10;96.40
5061;DHT22;2549;52.128;21.068;2023-12-04T12:55:10;4.20;96.60
5061;DHT22;2549;52.128;21.068;2023-12-04T12:57:37;4.20;96.60
5061;DHT22;2549;52.128;21.068;2023-12-04T13:00:07;4.20;96.60
5061;DHT22;2549;52.128;21.068;2023-12-04T13:02:37;4.20;96.50
5061;DHT22;2549;52.128;21.068;2023-12-04T13:05:05;4.20;96.30
5061;DHT22;2549;52.128;21.068;2023-12-04T13:07:33;4.10;96.10
5061;DHT22;2549;52.128;21.068;2023-12-04T13:10:00;4.10;96.10
5061;DHT22;2549;52.128;21.068;2023-12-04T13:12:27;4.10;96.10
5061;DHT22;2549;52.128;21.068;2023-12-04T13:14:54;4.10;96.10
5061;DHT22;2549;52.128;21.068;2023-12-04T13:17:21;4.10;96.00
5061;DHT22;2549;52.128;21.068;2023-12-04T13:19:47;4.10;95.90
5061;DHT22;2549;52.128;21.068;2023-12-04T13:22:14;4.10;96.00
5061;DHT22;2549;52.128;21.068;2023-12-04T13:24:41;4.10;96.00
5061;DHT22;2549;52.128;21.068;2023-12-04T13:27:08;4.10;95.90
5061;DHT22;2549;52.128;21.068;2023-12-04T13:29:35;4.10;96.00
5061;DHT22;2549;52.128;21.068;2023-12-04T13:32:03;4.10;95.80
5061;DHT22;2549;52.128;21.068;2023-12-04T13:34:31;4.20;95.80
5061;DHT22;2549;52.128;21.068;2023-12-04T13:36:58;4.20;95.80
5061;DHT22;2549;52.128;21.068;2023-12-04T13:39:25;4.10;95.70
5061;DHT22;2549;52.128;21.068;2023-12-04T13:42:14;4.20;95.70
5061;DHT22;2549;52.128;21.068;2023-12-04T13:45:01;4.10;95.60
5061;DHT22;2549;52.128;21.068;2023-12-04T13:47:28;4.10;95.60
5061;DHT22;2549;52.128;21.068;2023-12-04T13:49:56;4.10;95.60
5061;DHT22;2549;52.128;21.068;2023-12-04T13:52:25;4.10;95.60
5061;DHT22;2549;52.128;21.068;2023-12-04T13:54:54;4.10;95.60
5061;DHT22;2549;52.128;21.068;2023-12-04T13:57:21;4.00;95.60
5061;DHT22;2549;52.128;21.068;2023-12-04T13:59:54;4.10;95.60
5061;DHT22;2549;52.128;21.068;2023-12-04T14:02:24;4.10;95.60
5061;DHT22;2549;52.128;21.068;2023-12-04T14:04:52;4.10;95.70
5061;DHT22;2549;52.128;21.068;2023-12-04T14:07:19;4.10;95.60
5061;DHT22;2549;52.128;21.068;2023-12-04T14:09:47;4.00;95.50
5061;DHT22;2549;52.128;21.068;2023-12-04T14:12:14;4.00;95.50
5061;DHT22;2549;52.128;21.068;2023-12-04T14:14:42;3.90;95.50
5061;DHT22;2549;52.128;21.068;2023-12-04T14:17:09;3.90;95.50
5061;DHT22;2549;52.128;21.068;2023-12-04T14:19:38;3.90;95.60
5061;DHT22;2549;52.128;21.068;2023-12-04T14:22:06;3.90;95.60
5061;DHT22;2549;52.128;21.068;2023-12-04T14:24:33;3.80;95.60
5061;DHT22;2549;52.128;21.068;2023-12-04T14:27:02;3.80;95.60
5061;DHT22;2549;52.128;21.068;2023-12-04T14:29:29;3.80;95.60
5061;DHT22;2549;52.128;21.068;2023-12-04T14:31:56;3.70;95.60
5061;DHT22;2549;52.128;21.068;2023-12-04T14:34:23;3.70;95.60
5061;DHT22;2549;52.128;21.068;2023-12-04T14:36:51;3.70;95.70
5061;DHT22;2549;52.128;21.068;2023-12-04T14:39:18;3.70;95.80
5061;DHT22;2549;52.128;21.068;2023-12-04T14:41:45;3.70;95.70
5061;DHT22;2549;52.128;21.068;2023-12-04T14:44:12;3.70;95.70
5061;DHT22;2549;52.128;21.068;2023-12-04T14:46:41;3.60;95.70
5061;DHT22;2549;52.128;21.068;2023-12-04T14:49:11;3.60;95.70
5061;DHT22;2549;52.128;21.068;2023-12-04T14:51:38;3.60;95.80
5061;DHT22;2549;52.128;21.068;2023-12-04T14:54:05;3.60;95.80
5061;DHT22;2549;52.128;21.068;2023-12-04T14:56:49;3.50;95.80
5061;DHT22;2549;52.128;21.068;2023-12-04T14:59:34;3.50;95.80
5061;DHT22;2549;52.128;21.068;2023-12-04T15:02:21;3.50;95.80
5061;DHT22;2549;52.128;21.068;2023-12-04T15:05:07;3.50;95.90
5061;DHT22;2549;52.128;21.068;2023-12-04T15:07:53;3.50;95.80
5061;DHT22;2549;52.128;21.068;2023-12-04T15:10:38;3.50;95.90
5061;DHT22;2549;52.128;21.068;2023-12-04T15:13:27;3.40;96.00
5061;DHT22;2549;52.128;21.068;2023-12-04T15:16:00;3.40;96.00
5061;DHT22;2549;52.128;21.068;2023-12-04T15:18:40;3.40;96.00
5061;DHT22;2549;52.128;21.068;2023-12-04T15:21:27;3.40;96.00
5061;DHT22;2549;52.128;21.068;2023-12-04T15:23:55;3.30;96.00
5061;DHT22;2549;52.128;21.068;2023-12-04T15:26:23;3.30;95.90
5061;DHT22;2549;52.128;21.068;2023-12-04T15:28:50;3.30;96.00
5061;DHT22;2549;52.128;21.068;2023-12-04T15:31:17;3.30;96.30
5061;DHT22;2549;52.128;21.068;2023-12-04T15:33:43;3.30;96.00
5061;DHT22;2549;52.128;21.068;2023-12-04T15:36:11;3.30;96.00
5061;DHT22;2549;52.128;21.068;2023-12-04T15:38:39;3.30;96.00
5061;DHT22;2549;52.128;21.068;2023-12-04T15:41:06;3.30;96.00
5061;DHT22;2549;52.128;21.068;2023-12-04T15:43:32;3.20;95.90
5061;DHT22;2549;52.128;21.068;2023-12-04T15:45:59;3.20;96.00
5061;DHT22;2549;52.128;21.068;2023-12-04T15:48:26;3.20;96.10
5061;DHT22;2549;52.128;21.068;2023-12-04T15:50:53;3.20;96.10
5061;DHT22;2549;52.128;21.068;2023-12-04T15:53:21;3.20;96.10
5061;DHT22;2549;52.128;21.068;2023-12-04T15:55:48;3.20;96.10
5061;DHT22;2549;52.128;21.068;2023-12-04T15:58:15;3.20;96.10
5061;DHT22;2549;52.128;21.068;2023-12-04T16:00:43;3.20;96.10
5061;DHT22;2549;52.128;21.068;2023-12-04T16:03:10;3.20;96.50
5061;DHT22;2549;52.128;21.068;2023-12-04T16:05:40;3.40;96.20
5061;DHT22;2549;52.128;21.068;2023-12-04T16:08:08;3.40;95.90
5061;DHT22;2549;52.128;21.068;2023-12-04T16:10:35;3.50;95.90
5061;DHT22;2549;52.128;21.068;2023-12-04T16:13:02;3.50;95.80